Time;durP1;ratioP1;P1;durP2;ratioP2;P2;SDS_P1;SDS_P2;PMS_P1;PMS_P2;Temp;Humidity;BMP_temperature;BMP_pressure;BME280_temperature;BME280_humidity;BME280_pressure;Samples;Min_cycle;Max_cycle;Signal;HPM_P1;HPM_P2
2023/04/28 00:02:09;;;;;;;26.87;2.30;;;;;;;23.06;47.83;99700.44;7312917;19;129362;-39
2023/04/28 00:04:35;;;;;;;43.87;2.97;;;;;;;23.10;47.19;99691.31;7310249;19;129129;-39
2023/04/28 00:07:00;;;;;;;59.83;3.73;;;;;;;23.13;49.87;99691.03;7310495;19;129147;-39
2023/04/28 00:09:26;;;;;;;56.13;3.57;;;;;;;23.08;51.23;99693.25;7309468;19;130344;-39
2023/04/28 00:11:51;;;;;;;35.30;2.47;;;;;;;23.09;52.22;99687.03;7310557;19;129954;-39
2023/04/28 00:14:17;;;;;;;102.13;6.00;;;;;;;23.11;52.23;99688.56;7309272;19;128644;-40
2023/04/28 00:16:42;;;;;;;38.13;2.77;;;;;;;23.12;52.11;99686.75;7310483;19;130586;-40
2023/04/28 00:19:07;;;;;;;45.00;2.95;;;;;;;23.12;52.51;99684.16;7311073;19;129345;-39
2023/04/28 00:21:33;;;;;;;60.23;3.90;;;;;;;23.15;52.84;99675.97;7309214;19;129364;-39
2023/04/28 00:23:58;;;;;;;63.03;4.03;;;;;;;23.13;53.03;99670.88;7312420;19;128967;-39
2023/04/28 00:26:23;;;;;;;49.83;3.55;;;;;;;23.07;52.99;99654.91;7309626;19;130025;-40
2023/04/28 00:28:49;;;;;;;25.45;1.95;;;;;;;23.15;52.86;99668.09;7311231;19;129912;-39
2023/04/28 00:31:15;;;;;;;29.60;2.30;;;;;;;23.15;53.59;99668.09;7310121;19;129627;-39
2023/04/28 00:33:41;;;;;;;57.23;3.50;;;;;;;22.92;48.30;99661.63;7310981;19;129474;-40
2023/04/28 00:36:07;;;;;;;27.95;2.20;;;;;;;22.98;48.00;99661.03;7310231;19;129165;-39
2023/04/28 00:38:33;;;;;;;50.90;3.27;;;;;;;23.05;47.66;99662.94;7310926;19;131094;-39
2023/04/28 00:40:58;;;;;;;41.43;2.87;;;;;;;23.05;47.16;99656.84;7309406;19;129257;-39
2023/04/28 00:43:24;;;;;;;18.23;1.73;;;;;;;23.12;48.09;99652.66;7312679;19;129343;-41
2023/04/28 00:45:49;;;;;;;34.60;2.53;;;;;;;23.02;50.28;99652.72;7310427;19;130060;-41
2023/04/28 00:48:15;;;;;;;34.50;2.37;;;;;;;23.05;51.37;99651.59;7311991;19;129505;-39
2023/04/28 00:50:42;;;;;;;40.00;2.88;;;;;;;23.07;51.67;99639.19;7308153;19;129397;-42
2023/04/28 00:53:09;;;;;;;67.82;4.20;;;;;;;23.08;51.96;99640.81;7310704;19;128963;-41
2023/04/28 00:55:34;;;;;;;111.03;6.95;;;;;;;23.09;52.13;99627.56;7309473;19;129173;-42
2023/04/28 00:58:01;;;;;;;36.17;2.75;;;;;;;23.13;52.37;99622.84;7310190;19;130496;-41
2023/04/28 01:00:26;;;;;;;103.80;6.05;;;;;;;23.11;52.60;99620.38;7308463;19;129066;-38
2023/04/28 01:02:52;;;;;;;44.40;2.77;;;;;;;23.14;52.70;99611.34;7311181;19;128856;-38
2023/04/28 01:05:18;;;;;;;68.78;4.65;;;;;;;23.10;52.43;99616.09;7310383;19;129060;-40
2023/04/28 01:07:43;;;;;;;43.73;2.80;;;;;;;23.12;53.27;99616.75;7307577;19;130404;-41
2023/04/28 01:10:09;;;;;;;55.80;3.43;;;;;;;23.08;51.29;99611.97;7310304;19;130381;-41
2023/04/28 01:12:34;;;;;;;47.27;3.00;;;;;;;22.87;48.76;99616.66;7309241;19;129277;-41
2023/04/28 01:15:03;;;;;;;43.78;2.75;;;;;;;22.92;48.14;99614.44;7308729;19;130566;-41
2023/04/28 01:17:29;;;;;;;37.37;2.80;;;;;;;23.03;47.57;99616.84;7311474;19;130342;-42
2023/04/28 01:19:54;;;;;;;59.10;3.30;;;;;;;22.96;47.50;99600.03;7317797;19;128851;-39
2023/04/28 01:22:20;;;;;;;42.80;2.97;;;;;;;23.17;48.10;99611.88;7318288;19;129579;-41
2023/04/28 01:24:45;;;;;;;28.07;2.00;;;;;;;23.02;50.85;99610.75;7318808;19;129508;-42
2023/04/28 01:27:10;;;;;;;25.70;2.00;;;;;;;23.04;51.11;99608.81;7315437;19;129242;-39
2023/04/28 01:29:36;;;;;;;61.08;3.53;;;;;;;23.07;51.36;99605.09;7317125;19;129275;-42
2023/04/28 01:32:01;;;;;;;90.37;5.50;;;;;;;23.09;51.48;99605.75;7314911;19;130105;-42
2023/04/28 01:34:26;;;;;;;37.30;2.63;;;;;;;23.08;51.79;99598.84;7316010;19;130402;-39
2023/04/28 01:36:52;;;;;;;20.77;1.95;;;;;;;23.10;51.79;99602.16;7315652;19;130585;-42
2023/04/28 01:39:17;;;;;;;54.63;3.50;;;;;;;23.10;52.04;99592.50;7315609;19;129550;-41
2023/04/28 01:41:43;;;;;;;31.10;2.28;;;;;;;23.11;52.24;99594.13;7316456;19;128915;-39
2023/04/28 01:44:08;;;;;;;34.22;2.35;;;;;;;23.14;52.31;99587.75;7316523;19;129168;-42
2023/04/28 01:46:33;;;;;;;54.30;3.57;;;;;;;23.15;52.62;99584.97;7316134;19;129213;-43
2023/04/28 01:48:59;;;;;;;59.07;3.40;;;;;;;22.86;48.55;99584.38;7316270;19;129320;-42
2023/04/28 01:51:25;;;;;;;44.50;2.80;;;;;;;22.82;47.93;99577.78;7316321;19;130562;-41
2023/04/28 01:53:51;;;;;;;32.05;2.63;;;;;;;22.92;48.02;99573.28;7314478;19;130187;-41
2023/04/28 01:56:16;;;;;;;53.03;2.93;;;;;;;23.00;47.78;99575.19;7315750;19;129258;-42
2023/04/28 01:58:42;;;;;;;32.70;2.33;;;;;;;23.00;47.43;99572.56;7314786;19;129359;-41
2023/04/28 02:01:07;;;;;;;36.80;2.43;;;;;;;23.04;49.54;99571.25;7315548;19;129009;-42
2023/04/28 02:03:32;;;;;;;41.40;2.70;;;;;;;22.90;51.13;99548.19;7314573;19;130226;-43
2023/04/28 02:05:58;;;;;;;42.63;2.92;;;;;;;23.03;50.87;99569.63;7315904;19;130986;-39
2023/04/28 02:08:23;;;;;;;43.83;2.87;;;;;;;23.03;51.21;99559.97;7314743;19;128848;-42
2023/04/28 02:10:48;;;;;;;30.67;2.33;;;;;;;23.08;51.38;99567.38;7315132;19;129091;-40
2023/04/28 02:13:15;;;;;;;76.22;4.47;;;;;;;23.08;51.96;99572.63;7314674;19;129319;-42
2023/04/28 02:15:41;;;;;;;40.55;2.75;;;;;;;23.08;52.38;99562.13;7315154;19;131161;-40
2023/04/28 02:18:07;;;;;;;42.60;2.73;;;;;;;23.08;52.44;99567.38;7317162;19;130232;-41
2023/04/28 02:20:32;;;;;;;49.17;3.15;;;;;;;23.01;52.36;99550.59;7313557;19;129343;-42
2023/04/28 02:22:57;;;;;;;21.17;2.10;;;;;;;23.13;52.32;99567.75;7315629;19;129028;-42
2023/04/28 02:25:23;;;;;;;97.38;5.97;;;;;;;23.10;52.20;99558.41;7313510;19;129096;-41
2023/04/28 02:27:48;;;;;;;30.92;2.13;;;;;;;22.90;48.97;99556.91;7315602;19;129420;-42
2023/04/28 02:30:14;;;;;;;28.13;1.93;;;;;;;22.83;48.28;99560.25;7314038;19;129702;-41
2023/04/28 02:32:39;;;;;;;25.98;2.13;;;;;;;22.90;47.22;99553.44;7315553;19;129535;-41
2023/04/28 02:35:05;;;;;;;65.07;3.85;;;;;;;22.83;46.94;99541.91;7311705;19;129752;-40
2023/04/28 02:37:30;;;;;;;69.37;4.23;;;;;;;22.95;47.05;99546.78;7313946;19;129017;-42
2023/04/28 02:39:56;;;;;;;51.88;3.35;;;;;;;23.08;48.19;99547.25;7313174;19;129785;-39
2023/04/28 02:42:21;;;;;;;34.07;2.20;;;;;;;22.95;49.78;99543.34;7315264;19;130184;-40
2023/04/28 02:44:46;;;;;;;27.57;2.03;;;;;;;22.99;51.46;99548.13;7314276;19;129583;-40
2023/04/28 02:47:12;;;;;;;33.20;2.23;;;;;;;23.04;51.52;99545.88;7314025;19;129006;-42
2023/04/28 02:49:37;;;;;;;62.58;4.05;;;;;;;23.03;51.64;99538.16;7312255;19;129219;-42
2023/04/28 02:52:02;;;;;;;95.70;5.38;;;;;;;23.04;52.04;99535.38;7312774;19;129678;-41
2023/04/28 02:54:28;;;;;;;79.67;4.63;;;;;;;23.04;51.52;99527.53;7312411;19;129234;-40
2023/04/28 02:56:54;;;;;;;48.92;3.25;;;;;;;23.05;52.55;99523.13;7313503;19;128783;-42
2023/04/28 02:59:20;;;;;;;25.80;1.90;;;;;;;23.06;52.37;99522.13;7314686;19;129401;-41
2023/04/28 03:01:45;;;;;;;50.60;3.13;;;;;;;23.06;52.13;99528.19;7310961;19;130217;-42
2023/04/28 03:04:11;;;;;;;42.22;2.75;;;;;;;23.07;52.15;99523.78;7315724;19;129546;-40
2023/04/28 03:06:36;;;;;;;49.55;2.92;;;;;;;22.99;52.13;99508.78;7311709;19;130173;-40
2023/04/28 03:09:02;;;;;;;32.20;2.20;;;;;;;22.85;48.69;99524.22;7313898;19;129009;-41
2023/04/28 03:11:28;;;;;;;62.70;3.85;;;;;;;22.90;47.45;99524.59;7311056;19;130771;-42
2023/04/28 03:13:53;;;;;;;29.60;1.93;;;;;;;22.92;47.08;99518.22;7314713;19;129851;-42
2023/04/28 03:16:18;;;;;;;27.33;2.03;;;;;;;22.99;47.25;99519.28;7313995;19;129315;-38
2023/04/28 03:18:44;;;;;;;13.77;1.10;;;;;;;23.03;48.39;99498.84;7314659;19;128832;-42
2023/04/28 03:21:09;;;;;;;72.37;4.20;;;;;;;22.98;49.34;99503.69;7313045;19;129037;-38
2023/04/28 03:23:35;;;;;;;46.40;3.17;;;;;;;22.95;50.43;99498.78;7315861;19;130670;-41
2023/04/28 03:26:00;;;;;;;35.85;2.53;;;;;;;23.00;50.86;99489.50;7312762;19;128954;-42
2023/04/28 03:28:25;;;;;;;41.15;2.72;;;;;;;23.06;51.25;99485.41;7312559;19;128864;-41
2023/04/28 03:30:51;;;;;;;53.50;3.27;;;;;;;23.10;51.77;99484.16;7313263;19;129472;-42
2023/04/28 03:33:16;;;;;;;29.40;2.30;;;;;;;23.10;51.24;99486.78;7313589;19;130188;-41
2023/04/28 03:35:42;;;;;;;48.87;3.20;;;;;;;23.01;51.09;99487.66;7312541;19;129576;-42
2023/04/28 03:38:07;;;;;;;49.30;2.97;;;;;;;22.71;51.63;99472.34;7311331;19;128881;-42
2023/04/28 03:40:32;;;;;;;49.38;3.30;;;;;;;22.41;51.18;99477.91;7313114;19;129440;-41
2023/04/28 03:42:58;;;;;;;19.27;1.63;;;;;;;22.48;51.61;99478.94;7313343;19;129086;-41
2023/04/28 03:45:23;;;;;;;76.53;4.93;;;;;;;22.61;51.52;99453.25;7310675;19;129009;-42
2023/04/28 03:47:48;;;;;;;60.87;3.40;;;;;;;23.07;50.09;99476.59;7312044;19;130449;-41
2023/04/28 03:50:14;;;;;;;41.20;2.60;;;;;;;23.25;49.38;99475.56;7312824;19;130235;-39
2023/04/28 03:52:39;;;;;;;84.72;4.90;;;;;;;23.20;49.92;99479.63;7308777;19;130261;-42
2023/04/28 03:55:05;;;;;;;47.70;3.10;;;;;;;23.05;49.68;99478.53;7309011;19;131206;-42
2023/04/28 03:57:30;;;;;;;72.00;4.30;;;;;;;23.12;50.30;99484.81;7310312;19;129188;-41
2023/04/28 03:59:56;;;;;;;31.80;2.17;;;;;;;23.08;50.28;99462.50;7308637;19;131221;-42
2023/04/28 04:02:21;;;;;;;30.52;2.15;;;;;;;23.23;49.77;99481.94;7311972;19;131964;-42
2023/04/28 04:04:47;;;;;;;33.63;2.20;;;;;;;23.27;49.53;99472.81;7311954;19;129092;-39
2023/04/28 04:07:13;;;;;;;127.67;7.27;;;;;;;23.34;50.13;99473.84;7305702;19;128621;-39
2023/04/28 04:09:38;;;;;;;48.67;3.33;;;;;;;23.38;49.42;99475.22;7308328;19;129124;-42
2023/04/28 04:12:03;;;;;;;47.07;2.90;;;;;;;23.39;49.73;99468.97;7308869;19;131107;-41
2023/04/28 04:14:29;;;;;;;49.37;3.07;;;;;;;23.48;49.48;99465.44;7310597;19;129231;-40
2023/04/28 04:16:55;;;;;;;38.35;2.40;;;;;;;23.52;49.17;99469.38;7311367;19;129797;-40
2023/04/28 04:19:22;;;;;;;34.65;2.20;;;;;;;23.43;49.58;99457.19;7312199;19;129393;-42
2023/04/28 04:21:48;;;;;;;41.22;2.47;;;;;;;23.48;49.26;99449.69;7308988;19;130477;-38
2023/04/28 04:24:13;;;;;;;38.60;2.37;;;;;;;23.50;48.92;99432.00;7311159;19;130013;-40
2023/04/28 04:26:39;;;;;;;68.55;4.28;;;;;;;23.72;48.81;99439.31;7311082;19;129326;-40
2023/04/28 04:29:04;;;;;;;32.43;2.17;;;;;;;23.88;48.17;99428.06;7311797;19;128994;-42
2023/04/28 04:31:30;;;;;;;87.17;5.47;;;;;;;23.91;48.34;99439.09;7309070;19;130188;-41
2023/04/28 04:33:55;;;;;;;110.38;6.55;;;;;;;23.95;48.58;99429.88;7302702;19;129599;-39
2023/04/28 04:36:21;;;;;;;31.23;2.27;;;;;;;23.96;48.25;99434.19;7307232;19;129390;-41
2023/04/28 04:38:46;;;;;;;32.20;2.07;;;;;;;23.89;48.75;99432.31;7312797;19;130451;-42
2023/04/28 04:41:12;;;;;;;33.33;2.08;;;;;;;23.84;48.59;99430.19;7309233;19;130336;-38
2023/04/28 04:43:37;;;;;;;50.23;3.37;;;;;;;23.80;49.17;99420.97;7308796;19;129119;-42
2023/04/28 04:46:02;;;;;;;67.53;4.17;;;;;;;23.77;49.41;99426.53;7308717;19;130291;-40
2023/04/28 04:48:28;;;;;;;105.73;6.20;;;;;;;23.75;49.35;99425.06;7307765;19;130826;-39
2023/04/28 04:50:53;;;;;;;138.77;8.30;;;;;;;23.71;49.41;99421.09;7276048;19;130396;-42
2023/04/28 04:53:19;;;;;;;54.43;3.30;;;;;;;23.80;49.03;99420.97;7293705;19;130325;-40
2023/04/28 04:55:44;;;;;;;36.77;2.50;;;;;;;23.81;48.55;99409.50;7308816;19;129807;-41
2023/04/28 04:58:10;;;;;;;35.90;2.78;;;;;;;23.42;49.54;99403.06;7303973;19;130421;-41
2023/04/28 05:00:36;;;;;;;51.67;3.70;;;;;;;23.37;49.56;99410.56;7309307;19;129845;-42
2023/04/28 05:03:02;;;;;;;70.47;4.07;;;;;;;23.29;49.76;99414.97;7306985;19;130660;-40
2023/04/28 05:05:28;;;;;;;100.85;6.53;;;;;;;23.14;50.27;99415.50;7306768;19;130026;-42
2023/04/28 05:07:53;;;;;;;37.33;2.70;;;;;;;23.06;50.85;99417.25;7310867;19;129126;-42
2023/04/28 05:10:19;;;;;;;54.17;3.50;;;;;;;23.03;49.92;99417.53;7308069;19;130220;-41
2023/04/28 05:12:44;;;;;;;85.20;5.03;;;;;;;22.94;50.20;99413.25;7306494;19;129257;-41
2023/04/28 05:15:10;;;;;;;78.15;4.90;;;;;;;22.93;50.42;99411.56;7305819;19;130565;-41
2023/04/28 05:17:36;;;;;;;66.43;4.13;;;;;;;22.87;51.11;99414.81;7308543;19;129317;-40
2023/04/28 05:20:01;;;;;;;63.40;4.28;;;;;;;22.85;50.90;99403.66;7305437;19;129241;-42
2023/04/28 05:22:26;;;;;;;54.40;3.50;;;;;;;22.90;50.04;99386.50;7307657;19;128847;-43
2023/04/28 05:24:52;;;;;;;52.13;3.63;;;;;;;23.22;48.63;99393.75;7308171;19;129058;-41
2023/04/28 05:27:18;;;;;;;51.53;3.75;;;;;;;23.39;47.24;99390.25;7303635;19;129191;-42
2023/04/28 05:29:43;;;;;;;132.77;8.57;;;;;;;23.16;47.49;99387.31;7303679;19;131073;-41
2023/04/28 05:32:09;;;;;;;60.63;4.80;;;;;;;23.14;46.77;99391.91;7309191;19;129632;-41
2023/04/28 05:34:34;;;;;;;80.85;5.88;;;;;;;23.11;47.34;99383.50;7305802;19;129880;-41
2023/04/28 05:37:00;;;;;;;45.20;4.10;;;;;;;23.16;47.24;99376.00;7303551;19;130216;-40
2023/04/28 05:39:25;;;;;;;62.03;5.00;;;;;;;23.20;47.62;99382.59;7309855;19;130335;-36
2023/04/28 05:41:50;;;;;;;33.00;3.22;;;;;;;23.21;47.41;99381.59;7305357;19;129299;-41
2023/04/28 05:44:16;;;;;;;53.30;4.38;;;;;;;23.14;47.85;99372.69;7308661;19;129857;-43
2023/04/28 05:46:41;;;;;;;52.00;4.53;;;;;;;23.11;47.53;99373.03;7306183;19;131307;-42
2023/04/28 05:49:06;;;;;;;74.75;5.97;;;;;;;23.07;47.16;99366.47;7308691;19;129935;-43
2023/04/28 05:51:32;;;;;;;55.97;5.07;;;;;;;23.03;47.68;99372.97;7305517;19;129201;-42
2023/04/28 05:53:58;;;;;;;46.60;4.27;;;;;;;23.01;48.29;99374.91;7307855;19;129185;-42
2023/04/28 05:56:23;;;;;;;43.50;3.67;;;;;;;23.13;48.15;99376.31;7307919;19;129656;-39
2023/04/28 05:58:49;;;;;;;50.07;3.87;;;;;;;23.58;46.38;99374.31;7309411;19;129592;-42
2023/04/28 06:01:15;;;;;;;23.40;2.27;;;;;;;23.68;47.08;99372.38;7308682;19;129379;-42
2023/04/28 06:03:41;;;;;;;54.27;4.90;;;;;;;23.32;48.03;99381.38;7311639;19;129721;-42
2023/04/28 06:06:07;;;;;;;63.53;4.95;;;;;;;23.18;48.41;99377.50;7315705;19;129617;-42
2023/04/28 06:08:32;;;;;;;39.70;3.83;;;;;;;23.12;48.61;99380.72;7315318;19;129301;-41
2023/04/28 06:10:58;;;;;;;40.43;3.60;;;;;;;23.03;49.26;99371.19;7315955;19;129531;-39
2023/04/28 06:13:23;;;;;;;34.97;3.30;;;;;;;23.10;49.41;99376.63;7317116;19;129116;-40
2023/04/28 06:15:48;;;;;;;32.57;3.57;;;;;;;23.08;49.36;99370.72;7313249;19;130259;-40
2023/04/28 06:18:15;;;;;;;58.03;4.73;;;;;;;23.14;49.17;99384.03;7315017;19;129657;-40
2023/04/28 06:20:41;;;;;;;40.70;3.78;;;;;;;23.15;50.10;99383.03;7316216;19;130201;-39
2023/04/28 06:23:06;;;;;;;39.77;3.40;;;;;;;23.27;49.65;99383.63;7315859;19;130024;-39
2023/04/28 06:25:31;;;;;;;91.80;6.47;;;;;;;23.50;50.21;99379.53;7313619;19;129099;-40
2023/04/28 06:27:57;;;;;;;36.53;3.53;;;;;;;23.77;47.54;99360.91;7314935;19;130284;-39
2023/04/28 06:30:23;;;;;;;22.70;2.85;;;;;;;24.02;47.23;99375.78;7314817;19;128866;-39
2023/04/28 06:32:49;;;;;;;;;;;;;;;23.91;48.54;99368.19;7315997;19;129353;-39
2023/04/28 06:35:15;;;;;;;69.32;5.22;;;;;;;23.79;48.92;99369.44;7313407;19;130244;-40
2023/04/28 06:37:41;;;;;;;47.63;4.00;;;;;;;23.62;48.57;99362.50;7314679;19;130479;-39
2023/04/28 06:40:07;;;;;;;43.17;3.70;;;;;;;23.54;49.74;99365.09;7315563;19;129873;-40
2023/04/28 06:42:32;;;;;;;60.95;4.57;;;;;;;23.41;49.30;99369.94;7314689;19;129903;-40
2023/04/28 06:44:58;;;;;;;82.03;5.23;;;;;;;23.35;49.22;99365.34;7314938;19;130336;-41
2023/04/28 06:47:23;;;;;;;49.03;4.07;;;;;;;23.31;49.80;99364.00;7313214;19;130276;-39
2023/04/28 06:49:49;;;;;;;37.17;2.90;;;;;;;23.27;49.90;99360.03;7314823;19;129308;-40
2023/04/28 06:52:15;;;;;;;31.90;3.57;;;;;;;23.20;50.30;99359.00;7314336;19;129684;-40
2023/04/28 06:54:40;;;;;;;60.10;4.40;;;;;;;23.25;49.83;99364.59;7313571;19;129276;-40
2023/04/28 06:57:06;;;;;;;61.08;4.63;;;;;;;23.35;50.26;99354.84;7312987;19;129086;-40
2023/04/28 06:59:31;;;;;;;46.77;3.43;;;;;;;23.64;48.24;99357.06;7314911;19;130396;-39
2023/04/28 07:01:56;;;;;;;39.00;3.22;;;;;;;23.82;46.96;99355.16;7311706;19;129048;-39
2023/04/28 07:04:22;;;;;;;44.27;3.63;;;;;;;23.99;46.46;99354.28;7314999;19;129138;-40
2023/04/28 07:06:47;;;;;;;31.17;3.07;;;;;;;23.80;48.93;99349.28;7313879;19;130363;-39
2023/04/28 07:09:13;;;;;;;32.95;3.20;;;;;;;23.61;49.51;99350.34;7314144;19;128886;-40
2023/04/28 07:11:38;;;;;;;56.77;4.30;;;;;;;23.50;49.79;99348.03;7312935;19;129850;-40
2023/04/28 07:14:03;;;;;;;40.73;3.10;;;;;;;23.43;50.27;99336.50;7313987;19;130142;-39
2023/04/28 07:16:29;;;;;;;45.37;3.70;;;;;;;23.40;49.57;99342.06;7312394;19;129557;-40
2023/04/28 07:18:55;;;;;;;32.97;2.88;;;;;;;23.39;50.39;99342.25;7314290;19;129544;-39
2023/04/28 07:21:20;;;;;;;53.00;4.03;;;;;;;23.35;50.23;99338.28;7312637;19;130122;-40
2023/04/28 07:23:47;;;;;;;37.53;2.93;;;;;;;23.48;49.75;99344.72;7315143;19;130213;-40
2023/04/28 07:26:15;;;;;;;18.63;2.53;;;;;;;23.45;50.13;99338.97;7312846;19;130915;-39
2023/04/28 07:28:41;;;;;;;43.88;3.70;;;;;;;23.58;49.86;99340.19;7314040;19;129270;-39
2023/04/28 07:31:06;;;;;;;48.93;3.87;;;;;;;23.70;48.13;99317.88;7311902;19;129477;-40
2023/04/28 07:33:31;;;;;;;52.40;4.13;;;;;;;24.05;47.77;99335.22;7314157;19;130312;-39
2023/04/28 07:35:57;;;;;;;21.10;2.20;;;;;;;24.27;46.71;99332.00;7309241;19;129493;-40
2023/04/28 07:38:22;;;;;;;31.33;2.80;;;;;;;23.94;48.87;99330.25;7312943;19;128969;-39
2023/04/28 07:40:48;;;;;;;84.77;5.23;;;;;;;23.71;49.23;99327.44;7312269;19;129470;-40
2023/04/28 07:43:13;;;;;;;31.57;2.57;;;;;;;23.54;49.30;99323.09;7313655;19;129542;-40
2023/04/28 07:45:39;;;;;;;54.75;4.13;;;;;;;23.52;49.46;99327.69;7310932;19;129211;-39
2023/04/28 07:48:05;;;;;;;42.15;3.20;;;;;;;23.45;49.69;99324.06;7313015;19;129448;-39
2023/04/28 07:50:30;;;;;;;67.50;4.67;;;;;;;23.34;49.38;99323.53;7311661;19;128869;-40
2023/04/28 07:52:57;;;;;;;36.90;3.10;;;;;;;23.20;49.02;99309.97;7313432;19;130166;-40
2023/04/28 07:55:23;;;;;;;69.63;5.32;;;;;;;23.20;50.89;99314.41;7308712;19;130279;-40
2023/04/28 07:57:49;;;;;;;61.00;4.47;;;;;;;23.20;50.88;99304.72;7312270;19;128876;-40
2023/04/28 08:00:15;;;;;;;71.97;4.77;;;;;;;23.31;51.18;99308.06;7312094;19;129629;-40
2023/04/28 08:02:40;;;;;;;48.87;3.80;;;;;;;23.41;51.61;99304.34;7312517;19;130671;-39
2023/04/28 08:05:06;;;;;;;41.33;3.38;;;;;;;23.49;51.68;99303.56;7312649;19;129167;-39
2023/04/28 08:07:32;;;;;;;37.93;3.43;;;;;;;23.48;52.45;99307.16;7309558;19;129236;-40
2023/04/28 08:09:57;;;;;;;45.93;3.97;;;;;;;23.41;50.78;99296.47;7312716;19;128770;-39
2023/04/28 08:12:23;;;;;;;34.93;2.83;;;;;;;23.41;51.35;99295.66;7312561;19;130476;-39
2023/04/28 08:14:48;;;;;;;47.67;3.67;;;;;;;23.36;51.20;99298.75;7310605;19;129487;-40
2023/04/28 08:17:13;;;;;;;32.63;2.90;;;;;;;23.24;50.79;99279.00;7309482;19;129390;-39
2023/04/28 08:19:39;;;;;;;62.90;4.33;;;;;;;23.37;51.46;99305.63;7313871;19;129275;-39
2023/04/28 08:22:05;;;;;;;43.30;3.50;;;;;;;23.38;50.98;99299.44;7308686;19;130608;-39
2023/04/28 08:24:33;;;;;;;;;;;;;;;23.43;51.33;99294.53;7313649;19;130479;-40
2023/04/28 08:27:01;;;;;;;79.43;5.27;;;;;;;23.42;51.29;99294.69;7308428;19;129335;-39
2023/04/28 08:29:28;;;;;;;55.55;3.85;;;;;;;23.44;51.09;99298.78;7310986;19;128893;-39
2023/04/28 08:31:53;;;;;;;82.18;5.47;;;;;;;23.42;51.20;99298.13;7308899;19;130129;-40
2023/04/28 08:34:19;;;;;;;32.87;2.80;;;;;;;23.45;51.01;99303.06;7311741;19;130430;-39
2023/04/28 08:36:45;;;;;;;71.07;4.72;;;;;;;23.41;51.27;99295.66;7310145;19;129369;-39
2023/04/28 08:39:11;;;;;;;38.73;3.33;;;;;;;23.43;51.55;99297.16;7311941;19;130031;-39
2023/04/28 08:41:38;;;;;;;70.37;4.53;;;;;;;23.47;52.40;99295.84;7304398;19;130583;-40
2023/04/28 08:44:10;;;;;;;49.15;3.72;;;;;;;23.39;51.64;99287.94;7308288;19;130775;-41
2023/04/28 08:46:43;;;;;;;95.35;5.75;;;;;;;23.38;52.00;99273.19;7305506;19;129267;-42
2023/04/28 08:49:16;;;;;;;57.85;4.18;;;;;;;23.48;52.57;99292.25;7310468;19;129074;-40
2023/04/28 08:52:11;;;;;;;67.88;4.15;;;;;;;23.48;53.28;99280.94;7307688;19;130272;-42
2023/04/28 08:54:39;;;;;;;54.25;3.88;;;;;;;23.48;51.55;99287.00;7308913;19;130180;-42
2023/04/28 08:57:07;;;;;;;23.52;2.42;;;;;;;23.30;52.47;99261.84;7309703;19;129131;-42
2023/04/28 08:59:33;;;;;;;50.28;3.75;;;;;;;23.49;52.98;99267.66;7308986;19;129433;-43
2023/04/28 09:01:59;;;;;;;48.73;3.50;;;;;;;23.69;52.39;99258.50;7308325;19;130426;-42
2023/04/28 09:04:24;;;;;;;52.37;3.73;;;;;;;23.70;51.97;99249.66;7309477;19;129654;-41
2023/04/28 09:06:50;;;;;;;74.60;4.87;;;;;;;23.86;51.70;99262.81;7309134;19;129437;-41
2023/04/28 09:09:28;;;;;;;78.30;5.07;;;;;;;23.83;52.75;99265.75;7309776;19;128971;-41
2023/04/28 09:11:58;;;;;;;61.33;3.80;;;;;;;24.02;51.37;99248.91;7308280;19;129333;-41
2023/04/28 09:14:25;;;;;;;63.40;4.10;;;;;;;24.04;50.98;99268.78;7309646;19;131815;-40
2023/04/28 09:16:51;;;;;;;;;;;;;;;23.93;53.34;99270.88;7309646;19;129534;-42
2023/04/28 09:19:16;;;;;;;27.25;2.50;;;;;;;23.76;51.25;99270.03;7310183;19;130474;-41
2023/04/28 09:21:51;;;;;;;42.70;3.37;;;;;;;23.62;51.08;99265.38;7307446;19;130095;-42
2023/04/28 09:24:37;;;;;;;30.10;2.75;;;;;;;23.39;50.42;99259.09;7311246;19;130299;-42
2023/04/28 09:27:04;;;;;;;71.38;4.60;;;;;;;23.29;48.99;99266.25;7308152;19;128838;-41
2023/04/28 09:29:30;;;;;;;45.80;3.60;;;;;;;23.27;49.33;99257.72;7308586;19;129098;-40
2023/04/28 09:32:11;;;;;;;;;;;;;;;23.22;49.38;99265.25;7307328;19;129359;-42
2023/04/28 09:34:47;;;;;;;49.95;3.78;;;;;;;23.24;50.34;99258.00;7309933;19;129583;-42
2023/04/28 09:37:23;;;;;;;52.27;3.80;;;;;;;23.23;50.29;99259.00;7308880;19;129838;-42
2023/04/28 09:39:51;;;;;;;41.22;3.35;;;;;;;23.24;50.91;99263.25;7316848;19;129534;-42
2023/04/28 09:42:42;;;;;;;74.22;4.75;;;;;;;23.23;50.73;99259.00;7316046;19;129273;-42
2023/04/28 09:45:10;;;;;;;61.50;3.97;;;;;;;23.24;51.10;99260.63;7316191;19;130963;-40
2023/04/28 09:47:38;;;;;;;48.60;3.63;;;;;;;23.29;51.29;99261.00;7315313;19;130042;-41
2023/04/28 09:50:08;;;;;;;36.42;2.92;;;;;;;23.34;51.59;99263.97;7317094;19;129289;-39
2023/04/28 09:52:34;;;;;;;61.20;4.07;;;;;;;23.36;51.38;99259.41;7315769;19;130156;-42
2023/04/28 09:55:01;;;;;;;68.63;4.73;;;;;;;23.39;53.09;99250.41;7314376;19;131319;-43
2023/04/28 09:57:31;;;;;;;79.15;4.95;;;;;;;23.47;52.57;99253.06;7315284;19;129318;-41
2023/04/28 09:59:57;;;;;;;37.28;3.00;;;;;;;23.43;52.18;99235.97;7317342;19;129097;-41
2023/04/28 10:02:23;;;;;;;34.10;2.70;;;;;;;23.48;51.89;99249.44;7316721;19;130149;-39
2023/04/28 10:04:50;;;;;;;32.55;3.15;;;;;;;23.55;53.01;99246.00;7315074;19;130516;-41
2023/04/28 10:07:16;;;;;;;;;;;;;;;23.61;54.28;99242.75;7310937;19;129009;-41
2023/04/28 10:09:49;;;;;;;48.13;3.60;;;;;;;23.62;52.66;99254.88;7316589;19;129851;-42
2023/04/28 10:12:22;;;;;;;50.17;3.55;;;;;;;23.66;53.38;99245.72;7315476;19;131135;-40
2023/04/28 10:14:55;;;;;;;27.90;2.42;;;;;;;23.67;52.36;99239.47;7315588;19;130347;-41
2023/04/28 10:17:24;;;;;;;46.20;3.10;;;;;;;23.72;52.09;99250.31;7314346;19;128964;-40
2023/04/28 10:19:51;;;;;;;52.80;3.35;;;;;;;23.79;52.19;99246.06;7315555;19;129003;-40
2023/04/28 10:22:28;;;;;;;28.67;2.40;;;;;;;23.81;52.04;99251.97;7316135;19;130571;-42
2023/04/28 10:25:21;;;;;;;32.50;2.60;;;;;;;23.80;53.26;99244.28;7316078;19;130607;-40
2023/04/28 10:27:48;;;;;;;46.05;2.97;;;;;;;24.01;51.13;99248.09;7315346;19;128845;-42
2023/04/28 10:30:14;;;;;;;42.80;3.22;;;;;;;24.09;51.47;99250.72;7312151;19;128988;-41
2023/04/28 10:32:40;;;;;;;61.28;4.15;;;;;;;24.03;52.08;99261.06;7315069;19;129412;-41
2023/04/28 10:35:24;;;;;;;47.70;3.50;;;;;;;23.91;52.83;99263.16;7314495;19;130233;-42
2023/04/28 10:38:04;;;;;;;34.17;2.72;;;;;;;23.78;53.25;99254.94;7316041;19;129406;-41
2023/04/28 10:40:33;;;;;;;45.63;3.28;;;;;;;23.70;52.75;99252.28;7314988;19;129822;-42
2023/04/28 10:42:58;;;;;;;56.83;3.75;;;;;;;23.61;52.62;99266.38;7314616;19;129521;-41
2023/04/28 10:45:51;;;;;;;108.43;7.37;;;;;;;23.59;53.58;99263.09;7312950;19;129196;-38
2023/04/28 10:48:32;;;;;;;46.15;3.08;;;;;;;23.55;52.79;99267.00;7315691;19;129751;-42
2023/04/28 10:51:08;;;;;;;16.42;2.05;;;;;;;23.54;52.74;99272.41;7313501;19;129576;-42
2023/04/28 10:53:45;;;;;;;68.05;4.25;;;;;;;23.50;52.47;99271.94;7314333;19;130899;-42
2023/04/28 10:56:15;;;;;;;51.17;3.30;;;;;;;23.50;52.60;99278.97;7311437;19;130458;-41
2023/04/28 10:58:42;;;;;;;48.65;3.47;;;;;;;23.51;51.97;99276.19;7314326;19;128997;-40
2023/04/28 11:03:49;;;;;;;;;;;;;;;23.51;54.14;99288.47;7314984;19;129740;-38
2023/04/28 11:06:27;;;;;;;45.38;3.30;;;;;;;23.50;52.46;99282.44;7313935;19;130936;-38
2023/04/28 11:08:56;;;;;;;48.63;3.20;;;;;;;23.52;53.02;99293.56;7313865;19;128761;-42
2023/04/28 11:11:25;;;;;;;40.00;2.83;;;;;;;23.55;52.93;99288.00;7314317;19;130092;-39
2023/04/28 11:13:53;;;;;;;32.72;2.60;;;;;;;23.44;53.82;99269.94;7315755;19;131291;-41
2023/04/28 11:16:21;;;;;;;35.25;2.65;;;;;;;23.60;53.21;99280.47;7310831;19;130858;-38
2023/04/28 11:18:52;;;;;;;54.80;3.72;;;;;;;23.64;53.24;99280.97;7314266;19;129054;-38
2023/04/28 11:21:19;;;;;;;38.55;2.80;;;;;;;23.67;53.46;99285.91;7312482;19;129065;-40